Time;durP1;ratioP1;P1;durP2;ratioP2;P2;SDS_P1;SDS_P2;PMS_P1;PMS_P2;Temp;Humidity;BMP_temperature;BMP_pressure;BME280_temperature;BME280_humidity;BME280_pressure;Samples;Min_cycle;Max_cycle;Signal;HPM_P1;HPM_P2
2022/04/23 00:02:09;;;;;;;15.18;13.57;;;12.50;99.90;;;;;;5120961;28;20032;-61
2022/04/23 00:04:36;;;;;;;16.50;13.38;;;12.50;99.90;;;;;;5120046;28;20042;-62
2022/04/23 00:07:02;;;;;;;16.60;13.45;;;12.60;99.90;;;;;;5120778;28;20032;-61
2022/04/23 00:09:28;;;;;;;14.07;12.48;;;12.60;99.90;;;;;;5120995;28;20055;-61
2022/04/23 00:11:55;;;;;;;16.00;13.45;;;12.60;99.90;;;;;;5119887;28;20302;-61
2022/04/23 00:14:22;;;;;;;16.35;13.38;;;12.70;99.90;;;;;;5120693;28;20039;-61
2022/04/23 00:16:51;;;;;;;16.58;13.10;;;12.80;99.90;;;;;;5120741;28;20024;-61
2022/04/23 00:19:20;;;;;;;17.23;13.95;;;12.80;99.90;;;;;;5120649;28;20065;-61
2022/04/23 00:21:47;;;;;;;16.05;13.68;;;12.80;99.90;;;;;;5120544;28;20023;-60
2022/04/23 00:24:13;;;;;;;17.17;13.50;;;12.90;99.90;;;;;;5120578;28;20039;-61
2022/04/23 00:26:42;;;;;;;14.80;13.20;;;12.90;99.90;;;;;;5119892;28;20387;-61
2022/04/23 00:29:08;;;;;;;18.17;14.02;;;12.80;99.90;;;;;;5120421;28;20024;-61
2022/04/23 00:31:36;;;;;;;17.23;14.40;;;12.70;99.90;;;;;;5120270;28;20028;-61
2022/04/23 00:34:03;;;;;;;17.45;14.50;;;12.90;99.90;;;;;;5119584;28;20030;-61
2022/04/23 00:36:29;;;;;;;18.20;15.15;;;12.90;99.90;;;;;;5120221;28;20028;-61
2022/04/23 00:38:55;;;;;;;19.33;14.75;;;12.90;99.90;;;;;;5120255;28;20036;-61
2022/04/23 00:44:06;;;;;;;19.90;14.77;;;12.60;99.90;;;;;;5118774;28;20068;-61
2022/04/23 00:46:32;;;;;;;19.42;15.23;;;12.60;99.90;;;;;;5119896;28;20419;-61
2022/04/23 00:49:01;;;;;;;19.05;15.20;;;12.60;99.90;;;;;;5119862;28;20040;-61
2022/04/23 00:51:29;;;;;;;17.30;14.90;;;12.80;99.90;;;;;;5119859;28;20035;-62
2022/04/23 00:53:56;;;;;;;18.65;15.88;;;12.80;99.90;;;;;;5119220;28;20024;-61
2022/04/23 00:56:25;;;;;;;17.77;15.00;;;12.70;99.90;;;;;;5119124;28;20110;-61
2022/04/23 00:58:52;;;;;;;17.98;15.80;;;12.80;99.90;;;;;;5119136;28;20399;-61
2022/04/23 01:01:23;;;;;;;22.52;16.02;;;12.80;99.90;;;;;;5119160;28;20027;-60
2022/04/23 01:03:50;;;;;;;18.15;15.82;;;12.60;99.90;;;;;;5118945;28;20301;-60
2022/04/23 01:06:16;;;;;;;18.88;15.18;;;12.50;99.90;;;;;;5118965;28;20088;-60
2022/04/23 01:08:42;;;;;;;20.45;16.65;;;12.50;99.90;;;;;;5119523;28;20080;-61
2022/04/23 01:11:08;;;;;;;19.08;16.70;;;12.50;99.90;;;;;;5119618;28;20038;-60
2022/04/23 01:13:34;;;;;;;18.35;16.02;;;12.50;99.90;;;;;;5119800;28;20391;-61
2022/04/23 01:16:05;;;;;;;18.42;15.90;;;12.60;99.90;;;;;;5119496;28;20108;-60
2022/04/23 01:18:38;;;;;;;20.20;16.25;;;12.60;99.90;;;;;;5119825;28;20035;-61
2022/04/23 01:21:05;;;;;;;19.40;17.00;;;12.70;99.90;;;;;;5118678;28;20086;-61
2022/04/23 01:23:31;;;;;;;20.00;17.08;;;12.80;99.90;;;;;;5119587;28;20326;-61
2022/04/23 01:25:58;;;;;;;19.63;16.65;;;12.70;99.90;;;;;;5120036;28;20394;-60
2022/04/23 01:28:27;;;;;;;17.90;15.98;;;12.60;99.90;;;;;;5119279;28;20054;-60
2022/04/23 01:30:56;;;;;;;20.45;16.17;;;12.50;99.90;;;;;;5119195;28;20066;-61
2022/04/23 01:33:23;;;;;;;18.35;15.85;;;12.60;99.90;;;;;;5102223;28;20023;-60
2022/04/23 01:35:49;;;;;;;18.70;16.65;;;12.70;99.90;;;;;;5118669;28;20299;-60
2022/04/23 01:38:14;;;;;;;19.23;16.98;;;12.60;99.90;;;;;;5119070;28;20035;-60
2022/04/23 01:40:44;;;;;;;20.92;17.55;;;12.70;99.90;;;;;;5119607;28;20051;-61
2022/04/23 01:43:10;;;;;;;20.80;17.02;;;12.80;99.90;;;;;;5118887;28;20031;-60
2022/04/23 01:45:37;;;;;;;18.52;16.63;;;12.70;99.90;;;;;;5118025;28;20184;-60
2022/04/23 01:48:03;;;;;;;20.45;17.73;;;12.50;99.90;;;;;;5118831;28;20024;-60
2022/04/23 01:50:29;;;;;;;18.63;16.42;;;12.50;99.90;;;;;;5118857;28;20398;-60
2022/04/23 01:52:55;;;;;;;21.88;17.60;;;12.50;99.90;;;;;;5119124;28;20283;-61
2022/04/23 01:55:21;;;;;;;19.00;16.80;;;12.50;99.90;;;;;;5118379;28;20024;-61
2022/04/23 01:57:46;;;;;;;21.70;17.50;;;12.60;99.90;;;;;;5117898;28;20036;-60
2022/04/23 02:00:14;;;;;;;20.42;17.33;;;12.60;99.90;;;;;;5118602;28;20359;-60
2022/04/23 02:02:41;;;;;;;21.05;17.70;;;12.60;99.90;;;;;;5118549;28;20110;-60
2022/04/23 02:05:10;;;;;;;21.73;16.95;;;12.60;99.90;;;;;;5118509;28;20042;-61
2022/04/23 02:07:41;;;;;;;22.23;17.90;;;12.50;99.90;;;;;;5117840;28;20039;-61
2022/04/23 02:10:09;;;;;;;19.88;17.48;;;12.50;99.90;;;;;;5100735;28;20024;-61
2022/04/23 02:12:38;;;;;;;19.50;17.50;;;12.40;99.90;;;;;;5118483;28;20031;-60
2022/04/23 02:15:10;;;;;;;22.95;18.15;;;12.50;99.90;;;;;;5118284;28;20115;-60
2022/04/23 02:17:38;;;;;;;22.48;18.27;;;12.50;99.90;;;;;;5100621;28;20046;-61
2022/04/23 02:20:05;;;;;;;23.95;18.27;;;12.40;99.90;;;;;;5117499;28;20027;-60
2022/04/23 02:22:31;;;;;;;21.20;17.92;;;12.50;99.90;;;;;;5117496;28;20046;-61
2022/04/23 02:24:56;;;;;;;24.27;18.63;;;12.50;99.90;;;;;;5117504;28;20102;-60
2022/04/23 02:27:23;;;;;;;21.27;18.35;;;12.60;99.90;;;;;;5117856;28;20032;-60
2022/04/23 02:29:54;;;;;;;22.50;18.48;;;12.60;99.90;;;;;;5100548;28;20097;-60
2022/04/23 02:32:20;;;;;;;19.50;17.40;;;12.50;99.90;;;;;;5118022;28;20032;-61
2022/04/23 02:34:46;;;;;;;21.45;18.58;;;12.50;99.90;;;;;;5118007;28;20107;-60
2022/04/23 02:37:12;;;;;;;20.52;18.27;;;12.50;99.90;;;;;;5117847;28;20074;-61
2022/04/23 02:39:41;;;;;;;22.02;18.85;;;12.50;99.90;;;;;;5117077;28;20031;-60
2022/04/23 02:42:09;;;;;;;22.95;19.38;;;12.50;99.90;;;;;;5117765;28;20050;-61
2022/04/23 02:44:35;;;;;;;25.30;19.00;;;12.60;99.90;;;;;;5117658;28;20043;-63
2022/04/23 02:47:02;;;;;;;23.08;18.45;;;12.70;99.90;;;;;;5117712;28;20051;-60
2022/04/23 02:49:27;;;;;;;26.23;18.67;;;12.60;99.90;;;;;;5117739;28;20442;-61
2022/04/23 02:51:53;;;;;;;23.75;19.15;;;12.50;99.90;;;;;;5117014;28;20124;-60
2022/04/23 02:54:19;;;;;;;22.13;18.88;;;12.40;99.90;;;;;;5117716;28;20020;-60
2022/04/23 02:56:45;;;;;;;20.85;18.65;;;12.40;99.90;;;;;;5117023;28;20037;-60
2022/04/23 02:59:12;;;;;;;20.95;18.77;;;12.40;99.90;;;;;;5116850;28;20043;-60
2022/04/23 03:01:39;;;;;;;21.85;19.42;;;12.30;99.90;;;;;;5117659;28;20038;-60
2022/04/23 03:04:05;;;;;;;21.05;18.67;;;12.30;99.90;;;;;;5117579;28;20046;-60
2022/04/23 03:06:33;;;;;;;23.52;19.70;;;12.30;99.90;;;;;;5117151;28;20036;-60
2022/04/23 03:09:03;;;;;;;22.63;18.95;;;12.40;99.90;;;;;;5117280;28;20046;-60
2022/04/23 03:11:32;;;;;;;24.05;20.08;;;12.30;99.90;;;;;;5117408;28;20032;-61
2022/04/23 03:13:58;;;;;;;20.88;18.60;;;12.30;99.90;;;;;;5116582;28;20395;-61
2022/04/23 03:16:26;;;;;;;24.70;20.05;;;12.30;99.90;;;;;;5117459;28;20289;-60
2022/04/23 03:18:53;;;;;;;23.23;19.48;;;12.20;99.90;;;;;;5117327;28;20042;-60
2022/04/23 03:21:19;;;;;;;23.63;19.60;;;12.20;99.90;;;;;;5117373;28;20328;-60
2022/04/23 03:23:45;;;;;;;27.35;20.58;;;12.20;99.90;;;;;;5116740;28;20051;-60
2022/04/23 03:26:11;;;;;;;26.00;20.20;;;12.00;99.90;;;;;;5117637;28;20046;-60
2022/04/23 03:28:36;;;;;;;23.58;19.60;;;12.00;99.90;;;;;;5116389;28;20307;-60
2022/04/23 03:31:02;;;;;;;25.20;21.08;;;11.90;99.90;;;;;;5117279;28;20111;-60
2022/04/23 03:33:28;;;;;;;22.75;18.92;;;11.90;99.90;;;;;;5099539;28;20031;-60
2022/04/23 03:35:58;;;;;;;23.73;19.63;;;11.80;99.90;;;;;;5117146;28;20295;-60
2022/04/23 03:38:23;;;;;;;24.65;20.23;;;11.70;99.90;;;;;;5117150;28;20290;-60
2022/04/23 03:40:53;;;;;;;23.23;19.15;;;11.80;99.90;;;;;;5117498;28;20036;-60
2022/04/23 03:43:25;;;;;;;27.92;21.13;;;11.80;99.90;;;;;;5116332;28;20040;-61
2022/04/23 03:45:53;;;;;;;24.30;20.20;;;11.80;99.90;;;;;;5117287;28;20043;-62
2022/04/23 03:48:19;;;;;;;23.25;20.20;;;11.80;99.90;;;;;;5117075;28;20047;-60
2022/04/23 03:50:45;;;;;;;26.15;19.98;;;11.80;99.90;;;;;;5117093;28;20024;-60
2022/04/23 03:53:11;;;;;;;23.02;20.02;;;11.90;99.90;;;;;;5117371;28;20051;-60
2022/04/23 03:55:37;;;;;;;24.58;20.42;;;11.90;99.90;;;;;;5116243;28;20019;-60
2022/04/23 03:58:03;;;;;;;22.92;20.15;;;11.90;99.90;;;;;;5116635;28;20024;-60
2022/04/23 04:00:30;;;;;;;23.73;19.33;;;11.80;99.90;;;;;;5117026;28;20099;-61
2022/04/23 04:02:56;;;;;;;22.90;19.88;;;11.80;99.90;;;;;;5116235;28;20043;-62
2022/04/23 04:05:24;;;;;;;24.48;20.88;;;11.90;99.90;;;;;;5117237;28;20023;-62
2022/04/23 04:07:51;;;;;;;23.90;20.45;;;11.70;99.90;;;;;;5116281;28;20028;-61
2022/04/23 04:10:21;;;;;;;23.25;20.35;;;11.60;99.90;;;;;;5099435;28;20088;-61
2022/04/23 04:12:48;;;;;;;23.13;19.70;;;11.60;99.90;;;;;;5116937;28;20096;-61
2022/04/23 04:15:15;;;;;;;23.67;20.33;;;11.80;99.90;;;;;;5116888;28;20035;-62
2022/04/23 04:17:41;;;;;;;25.23;20.30;;;11.80;99.90;;;;;;5118372;28;20034;-61
2022/04/23 04:20:13;;;;;;;23.88;20.15;;;11.90;99.90;;;;;;5119820;28;20035;-62
2022/04/23 04:22:44;;;;;;;25.60;20.17;;;12.00;99.90;;;;;;5120702;28;20395;-61
2022/04/23 04:25:12;;;;;;;22.15;19.48;;;11.80;99.90;;;;;;5119856;28;20418;-62
2022/04/23 04:27:38;;;;;;;22.65;20.13;;;11.90;99.90;;;;;;5120488;28;20015;-61
2022/04/23 04:30:07;;;;;;;22.40;19.45;;;12.00;99.90;;;;;;5120636;28;20330;-61
2022/04/23 04:32:33;;;;;;;24.05;20.25;;;11.80;99.90;;;;;;5120466;28;20069;-61
2022/04/23 04:34:59;;;;;;;25.25;20.38;;;11.80;99.90;;;;;;5120232;28;20032;-63
2022/04/23 04:37:27;;;;;;;26.52;19.38;;;11.70;99.90;;;;;;5120268;28;20089;-61
2022/04/23 04:39:53;;;;;;;22.73;19.75;;;11.70;99.90;;;;;;5120527;28;20032;-62
2022/04/23 04:42:19;;;;;;;23.75;20.65;;;11.60;99.90;;;;;;5120142;28;20028;-62
2022/04/23 04:44:45;;;;;;;24.27;20.58;;;11.60;99.90;;;;;;5119321;28;20040;-62
2022/04/23 04:47:11;;;;;;;23.05;20.05;;;11.50;99.90;;;;;;5119305;28;20067;-61
2022/04/23 04:49:39;;;;;;;24.70;20.73;;;11.50;99.90;;;;;;5120095;28;20023;-61
2022/04/23 04:52:05;;;;;;;23.63;20.63;;;11.60;99.90;;;;;;5120268;28;20027;-61
2022/04/23 04:54:31;;;;;;;24.35;20.48;;;11.60;99.90;;;;;;5119944;28;20024;-61
2022/04/23 04:56:57;;;;;;;24.67;20.60;;;11.60;99.90;;;;;;5119710;28;20016;-61
2022/04/23 04:59:23;;;;;;;25.13;20.38;;;11.60;99.90;;;;;;5119817;28;20028;-60
2022/04/23 05:01:50;;;;;;;24.13;21.17;;;11.70;99.90;;;;;;5119733;28;20038;-61
2022/04/23 05:04:17;;;;;;;24.25;21.23;;;11.70;99.90;;;;;;5119771;28;20058;-61
2022/04/23 05:06:43;;;;;;;24.30;20.90;;;11.70;99.90;;;;;;5119692;28;20038;-62
2022/04/23 05:09:09;;;;;;;27.35;21.27;;;11.70;99.90;;;;;;5118742;28;20031;-61
2022/04/23 05:11:35;;;;;;;25.48;20.77;;;11.80;99.90;;;;;;5119554;28;20076;-60
2022/04/23 05:14:00;;;;;;;24.48;20.50;;;11.90;99.90;;;;;;5119673;28;20035;-61
2022/04/23 05:16:26;;;;;;;22.40;20.00;;;12.00;99.90;;;;;;5118675;28;20027;-61
2022/04/23 05:18:52;;;;;;;23.73;20.90;;;11.90;99.90;;;;;;5119632;28;20356;-61
2022/04/23 05:21:18;;;;;;;24.75;21.10;;;11.90;99.90;;;;;;5119478;28;20023;-61
2022/04/23 05:23:44;;;;;;;23.52;20.23;;;11.90;99.90;;;;;;5119423;28;20131;-61
2022/04/23 05:26:10;;;;;;;25.00;20.60;;;11.90;99.90;;;;;;5118629;28;20077;-61
2022/04/23 05:28:36;;;;;;;24.77;20.75;;;11.90;99.90;;;;;;5117984;28;20046;-61
2022/04/23 05:31:02;;;;;;;25.48;20.92;;;11.90;99.90;;;;;;5118939;28;20088;-61
2022/04/23 05:33:29;;;;;;;23.83;19.95;;;12.00;99.90;;;;;;5101632;28;20059;-62
2022/04/23 05:35:54;;;;;;;28.00;21.92;;;12.20;99.90;;;;;;5101358;28;20034;-62
2022/04/23 05:38:21;;;;;;;26.70;21.15;;;12.30;99.90;;;;;;5118418;28;20127;-61
2022/04/23 05:40:50;;;;;;;26.52;21.77;;;12.30;99.90;;;;;;5118359;28;20036;-61
2022/04/23 05:43:17;;;;;;;24.83;21.35;;;12.20;99.90;;;;;;5118960;28;20370;-61
2022/04/23 05:45:44;;;;;;;24.27;21.00;;;12.00;99.90;;;;;;5118813;28;20048;-62
2022/04/23 05:48:11;;;;;;;26.90;21.45;;;11.90;99.90;;;;;;5118815;28;20034;-61
2022/04/23 05:50:37;;;;;;;27.23;22.15;;;12.00;99.90;;;;;;5118620;28;20283;-61
2022/04/23 05:53:03;;;;;;;26.00;22.58;;;12.10;99.90;;;;;;5118723;28;20023;-61
2022/04/23 05:55:29;;;;;;;25.55;21.50;;;12.10;99.90;;;;;;5118582;28;20023;-62
2022/04/23 05:57:55;;;;;;;26.98;22.08;;;12.00;99.90;;;;;;5118664;28;20024;-62
2022/04/23 06:00:21;;;;;;;27.70;21.15;;;11.80;99.90;;;;;;5118536;28;20088;-62
2022/04/23 06:02:47;;;;;;;28.52;22.77;;;11.90;99.90;;;;;;5100770;28;20061;-61
2022/04/23 06:05:13;;;;;;;25.98;21.73;;;11.80;99.90;;;;;;5100765;28;20041;-61
2022/04/23 06:07:39;;;;;;;25.42;21.88;;;11.80;99.90;;;;;;5100659;28;20035;-61
2022/04/23 06:10:06;;;;;;;25.60;21.55;;;12.00;99.90;;;;;;5117676;28;20039;-61
2022/04/23 06:12:32;;;;;;;27.10;21.75;;;11.90;99.90;;;;;;5117602;28;20035;-62
2022/04/23 06:14:58;;;;;;;27.10;22.40;;;12.00;99.90;;;;;;5117527;28;20320;-62
2022/04/23 06:17:25;;;;;;;29.52;22.52;;;12.10;99.90;;;;;;5118571;28;20127;-61
2022/04/23 06:19:52;;;;;;;30.75;23.30;;;12.10;99.90;;;;;;5118243;28;20307;-61
2022/04/23 06:22:19;;;;;;;28.05;23.10;;;12.10;99.90;;;;;;5118127;28;20032;-61
2022/04/23 06:24:45;;;;;;;28.73;22.52;;;12.20;99.90;;;;;;5118193;28;20027;-62
2022/04/23 06:27:11;;;;;;;26.63;21.98;;;12.20;99.90;;;;;;5118077;28;20035;-61
2022/04/23 06:29:39;;;;;;;27.63;22.88;;;12.20;99.90;;;;;;5118074;28;20168;-61
2022/04/23 06:32:05;;;;;;;26.00;21.55;;;12.30;99.90;;;;;;5117901;28;20039;-61
2022/04/23 06:34:31;;;;;;;29.48;22.77;;;12.30;99.90;;;;;;5118017;28;20039;-62
2022/04/23 06:36:57;;;;;;;27.77;22.13;;;12.30;99.90;;;;;;5117844;28;20027;-61
2022/04/23 06:39:23;;;;;;;25.42;21.80;;;12.40;99.90;;;;;;5117742;28;20145;-61
2022/04/23 06:41:49;;;;;;;27.15;22.95;;;12.40;99.90;;;;;;5117236;28;20031;-62
2022/04/23 06:44:15;;;;;;;25.58;22.08;;;12.50;99.90;;;;;;5117598;28;20059;-62
2022/04/23 06:46:40;;;;;;;27.20;22.35;;;12.50;99.90;;;;;;5117155;28;20389;-61
2022/04/23 06:49:06;;;;;;;26.45;21.80;;;12.60;99.90;;;;;;5117651;28;20036;-62
2022/04/23 06:51:33;;;;;;;26.52;22.58;;;12.80;99.90;;;;;;5117295;28;20039;-61
2022/04/23 06:53:58;;;;;;;25.70;22.50;;;12.90;99.90;;;;;;5117589;28;20108;-59
2022/04/23 06:56:24;;;;;;;28.25;22.92;;;12.90;99.90;;;;;;5117625;28;20081;-59
2022/04/23 06:58:50;;;;;;;28.73;23.38;;;12.90;99.90;;;;;;5117575;28;20205;-60
2022/04/23 07:01:17;;;;;;;26.92;22.70;;;12.90;99.90;;;;;;5117557;28;20027;-59
2022/04/23 07:03:43;;;;;;;27.48;21.55;;;13.00;99.90;;;;;;5118129;28;20115;-59
2022/04/23 07:06:10;;;;;;;28.55;22.50;;;13.10;99.90;;;;;;5117459;28;20115;-59
2022/04/23 07:08:36;;;;;;;28.15;22.25;;;13.00;99.90;;;;;;5099889;28;20046;-59
2022/04/23 07:11:01;;;;;;;27.27;22.67;;;13.10;99.90;;;;;;5116833;28;20031;-60
2022/04/23 07:13:27;;;;;;;26.20;21.80;;;13.10;99.90;;;;;;5117438;28;20030;-60
2022/04/23 07:15:53;;;;;;;26.40;21.90;;;13.10;99.90;;;;;;5117323;28;20044;-61
2022/04/23 07:18:19;;;;;;;25.08;20.35;;;13.20;99.90;;;;;;5117472;28;20039;-63
2022/04/23 07:20:44;;;;;;;24.98;21.20;;;13.10;99.90;;;;;;5117314;28;20085;-63
2022/04/23 07:25:54;;;;;;;28.55;21.50;;;13.30;99.90;;;;;;5117333;28;20046;-63
2022/04/23 07:28:20;;;;;;;28.75;21.17;;;13.30;99.90;;;;;;5116603;28;20099;-61
2022/04/23 07:30:47;;;;;;;23.73;21.17;;;13.40;99.90;;;;;;5117312;28;20140;-62
2022/04/23 07:38:42;;;;;;;26.70;21.20;;;13.40;99.90;;;;;;5117566;28;20426;-61
2022/04/23 07:41:09;;;;;;;24.50;21.42;;;13.50;99.90;;;;;;5116355;28;20349;-62
2022/04/23 07:43:34;;;;;;;24.05;21.13;;;13.70;99.90;;;;;;5117409;28;20036;-61
2022/04/23 07:46:00;;;;;;;24.27;20.60;;;14.00;99.90;;;;;;5116948;28;20063;-62
2022/04/23 07:48:26;;;;;;;23.70;20.75;;;14.00;99.90;;;;;;5116894;28;20035;-59
2022/04/23 07:50:53;;;;;;;22.20;19.23;;;14.10;99.90;;;;;;5116211;28;20031;-59
2022/04/23 07:53:19;;;;;;;28.27;21.35;;;14.10;99.90;;;;;;5101972;28;20084;-61
2022/04/23 07:55:45;;;;;;;25.50;21.70;;;14.20;99.90;;;;;;5120336;28;20284;-62
2022/04/23 07:58:11;;;;;;;31.52;22.25;;;14.20;99.90;;;;;;5103974;28;20031;-59
2022/04/23 08:00:38;;;;;;;26.23;20.63;;;14.30;99.90;;;;;;5120981;28;20028;-61
2022/04/23 08:03:05;;;;;;;25.02;20.75;;;14.20;99.90;;;;;;5120937;28;20042;-61
2022/04/23 08:05:32;;;;;;;28.55;20.83;;;14.30;99.90;;;;;;5121016;28;20438;-61
2022/04/23 08:07:59;;;;;;;23.83;19.58;;;14.30;99.90;;;;;;5120738;28;20295;-61
2022/04/23 08:10:25;;;;;;;22.17;19.77;;;14.40;99.90;;;;;;5120201;28;20020;-60
2022/04/23 08:12:51;;;;;;;27.33;22.35;;;14.50;99.90;;;;;;5120720;28;20031;-61
2022/04/23 08:15:17;;;;;;;26.30;21.95;;;14.50;99.90;;;;;;5119819;28;20030;-61
2022/04/23 08:17:43;;;;;;;23.42;20.58;;;14.60;99.90;;;;;;5120641;28;20023;-65
2022/04/23 08:20:10;;;;;;;26.48;20.25;;;14.70;99.90;;;;;;5120569;28;20032;-60
2022/04/23 08:22:36;;;;;;;24.27;20.38;;;14.60;99.90;;;;;;5119743;28;20043;-60
2022/04/23 08:25:03;;;;;;;22.70;19.98;;;14.70;99.90;;;;;;5120474;28;20039;-60
2022/04/23 08:27:29;;;;;;;24.67;20.17;;;14.70;99.90;;;;;;5120490;28;20096;-60
2022/04/23 08:32:39;;;;;;;23.67;20.35;;;14.90;99.90;;;;;;5120399;28;20035;-62
2022/04/23 08:35:05;;;;;;;23.80;20.15;;;14.90;99.90;;;;;;5119610;28;20435;-62
2022/04/23 08:37:33;;;;;;;22.05;19.65;;;14.90;99.90;;;;;;5119508;28;20036;-62
2022/04/23 08:39:59;;;;;;;25.92;20.48;;;15.00;99.90;;;;;;5102378;28;20357;-61
2022/04/23 08:42:26;;;;;;;23.90;20.17;;;14.90;99.90;;;;;;5119340;28;20032;-61
2022/04/23 08:44:53;;;;;;;27.77;20.67;;;15.20;99.90;;;;;;5119186;28;20048;-60
2022/04/23 08:47:23;;;;;;;27.02;20.58;;;15.30;99.90;;;;;;5119299;28;20043;-61
2022/04/23 08:49:56;;;;;;;22.70;19.77;;;15.40;99.90;;;;;;5120460;28;20101;-61
2022/04/23 08:52:32;;;;;;;24.65;20.60;;;15.50;99.90;;;;;;5120041;28;20028;-60
2022/04/23 08:55:06;;;;;;;23.80;19.98;;;15.60;99.90;;;;;;5120107;28;20032;-60
2022/04/23 08:57:33;;;;;;;24.83;19.77;;;15.70;99.90;;;;;;5119904;28;20039;-61
2022/04/23 09:00:00;;;;;;;26.55;20.90;;;15.90;99.90;;;;;;5119076;28;20023;-62
2022/04/23 09:02:30;;;;;;;22.92;19.33;;;15.90;99.90;;;;;;5119765;28;20066;-60
2022/04/23 09:04:56;;;;;;;26.60;19.92;;;15.90;99.90;;;;;;5118636;28;20042;-60
2022/04/23 09:07:24;;;;;;;22.33;19.02;;;16.00;99.90;;;;;;5119623;28;20130;-62
2022/04/23 09:09:51;;;;;;;22.50;19.85;;;16.00;99.90;;;;;;5119666;28;20032;-61
2022/04/23 09:12:18;;;;;;;25.25;19.75;;;15.90;99.90;;;;;;5119667;28;20028;-61
2022/04/23 09:14:48;;;;;;;23.00;19.55;;;16.10;99.90;;;;;;5119540;28;20070;-62
2022/04/23 09:25:43;;;;;;;21.70;18.55;;;16.80;99.90;;;;;;5118715;28;20039;-61
2022/04/23 09:28:29;;;;;;;21.13;18.75;;;16.70;99.90;;;;;;5118560;28;20051;-61
2022/04/23 09:30:56;;;;;;;21.80;18.73;;;16.90;99.90;;;;;;5118548;28;20031;-61
2022/04/23 09:33:41;;;;;;;24.20;19.08;;;17.00;99.90;;;;;;5119394;28;20027;-60
2022/04/23 09:36:07;;;;;;;20.88;17.65;;;17.10;99.90;;;;;;5119117;28;20031;-60
2022/04/23 09:38:33;;;;;;;19.33;17.30;;;17.20;99.90;;;;;;5118986;28;20396;-61
2022/04/23 09:41:15;;;;;;;19.23;17.20;;;17.10;99.90;;;;;;5118973;28;20031;-61
2022/04/23 09:43:42;;;;;;;19.65;16.63;;;17.00;99.90;;;;;;5119044;28;20418;-60
2022/04/23 09:46:09;;;;;;;22.08;17.35;;;17.10;99.90;;;;;;5118784;28;20051;-63
2022/04/23 09:48:38;;;;;;;22.90;17.60;;;17.30;99.90;;;;;;5118843;28;20395;-62
2022/04/23 09:51:05;;;;;;;26.33;17.83;;;17.40;99.90;;;;;;5118013;28;20391;-59
2022/04/23 09:53:31;;;;;;;19.33;16.73;;;17.50;99.90;;;;;;5119101;28;20299;-61
2022/04/23 09:56:04;;;;;;;21.08;17.45;;;17.40;99.90;;;;;;5118754;28;20031;-62
2022/04/23 09:58:34;;;;;;;18.40;16.45;;;17.60;99.90;;;;;;5118802;28;20402;-61
2022/04/23 10:01:00;;;;;;;21.25;16.15;;;17.80;99.90;;;;;;5101532;28;20043;-62
2022/04/23 10:03:29;;;;;;;18.77;15.60;;;17.80;99.90;;;;;;5118630;28;20028;-62
2022/04/23 10:05:56;;;;;;;18.45;15.75;;;17.90;99.90;;;;;;5117828;28;20023;-61
2022/04/23 10:08:34;;;;;;;17.80;15.13;;;17.90;99.90;;;;;;5118441;28;20023;-60
2022/04/23 10:11:21;;;;;;;18.77;15.30;;;18.00;99.90;;;;;;5118630;28;20137;-59
2022/04/23 10:13:53;;;;;;;16.90;15.10;;;18.10;99.90;;;;;;5100687;28;20107;-60
2022/04/23 10:16:20;;;;;;;21.55;15.77;;;18.20;99.90;;;;;;5118255;28;20023;-63
2022/04/23 10:18:46;;;;;;;17.20;15.15;;;18.20;99.90;;;;;;5118394;28;20032;-60
2022/04/23 10:21:20;;;;;;;16.95;15.15;;;18.00;99.90;;;;;;5118204;28;20038;-61
2022/04/23 10:24:10;;;;;;;20.13;15.00;;;18.10;99.90;;;;;;5118356;28;20295;-63
2022/04/23 10:26:59;;;;;;;15.98;13.88;;;18.40;99.90;;;;;;5118240;28;20024;-62
2022/04/23 10:29:27;;;;;;;17.52;15.65;;;18.50;99.90;;;;;;5118738;28;20032;-60
2022/04/23 10:32:12;;;;;;;17.30;15.35;;;18.50;99.90;;;;;;5118029;28;20024;-59
2022/04/23 10:34:40;;;;;;;18.75;15.13;;;18.80;99.90;;;;;;5118068;28;20042;-61
2022/04/23 10:37:22;;;;;;;16.25;14.63;;;18.80;99.90;;;;;;5117866;28;20080;-60
2022/04/23 10:39:51;;;;;;;16.23;14.20;;;19.20;99.90;;;;;;5118377;28;20435;-64
2022/04/23 10:42:18;;;;;;;18.67;14.63;;;19.30;99.90;;;;;;5118161;28;20089;-63
2022/04/23 10:44:45;;;;;;;18.95;14.07;;;19.30;99.90;;;;;;5117697;28;20409;-62
2022/04/23 10:47:32;;;;;;;16.30;12.65;;;19.50;99.90;;;;;;5117110;28;20028;-62
2022/04/23 10:50:21;;;;;;;21.63;12.90;;;19.70;99.90;;;;;;5117140;28;20023;-62
2022/04/23 10:52:50;;;;;;;14.10;12.70;;;20.60;99.90;;;;;;5117935;28;20035;-64
2022/04/23 10:55:16;;;;;;;15.90;12.80;;;21.00;99.90;;;;;;5117736;28;20023;-62
2022/04/23 10:57:52;;;;;;;14.65;12.38;;;21.90;99.90;;;;;;5117974;28;20336;-64
2022/04/23 11:00:20;;;;;;;15.38;12.60;;;22.30;99.90;;;;;;5117334;28;20080;-60
2022/04/23 11:02:56;;;;;;;14.50;13.00;;;22.00;99.90;;;;;;5117610;28;20287;-62
2022/04/23 11:13:53;;;;;;;16.20;13.75;;;21.50;99.90;;;;;;5118172;28;20115;-62
2022/04/23 11:16:24;;;;;;;15.70;13.48;;;21.20;99.90;;;;;;5116732;28;20026;-62
2022/04/23 11:18:52;;;;;;;15.38;13.45;;;21.00;99.90;;;;;;5117428;28;20102;-61
2022/04/23 11:21:26;;;;;;;13.15;11.95;;;22.00;99.90;;;;;;5117363;28;20027;-62
2022/04/23 11:23:56;;;;;;;14.10;12.50;;;22.90;99.90;;;;;;5118016;28;20032;-63
2022/04/23 11:26:38;;;;;;;16.48;13.35;;;22.50;99.90;;;;;;5116616;28;20059;-63
2022/04/23 11:29:04;;;;;;;18.27;13.20;;;21.80;99.90;;;;;;5121766;28;20028;-64
2022/04/23 11:31:30;;;;;;;13.18;11.95;;;22.60;99.90;;;;;;5121640;28;20020;-63
2022/04/23 11:33:58;;;;;;;13.13;11.73;;;23.50;99.90;;;;;;5121868;28;20020;-64
2022/04/23 11:36:36;;;;;;;14.07;11.05;;;24.10;99.90;;;;;;5121438;28;20031;-62
2022/04/23 11:39:10;;;;;;;14.45;11.57;;;24.60;99.90;;;;;;5121801;28;20295;-60
2022/04/23 11:41:47;;;;;;;15.32;12.00;;;24.10;99.90;;;;;;5121379;28;20032;-62
2022/04/23 11:47:12;;;;;;;14.00;11.95;;;24.60;99.90;;;;;;5121480;28;20035;-61
2022/04/23 11:49:38;;;;;;;23.60;12.27;;;25.20;99.90;;;;;;5121268;28;20032;-62
2022/04/23 11:52:10;;;;;;;12.88;11.68;;;25.70;99.80;;;;;;5121141;28;20038;-62
2022/04/23 11:54:41;;;;;;;13.48;11.48;;;26.40;99.00;;;;;;5121499;28;20096;-64
2022/04/23 11:57:10;;;;;;;13.18;10.65;;;25.40;99.00;;;;;;5121080;28;20295;-61
2022/04/23 11:59:44;;;;;;;13.32;12.02;;;25.50;98.40;;;;;;5120238;28;20019;-63
2022/04/23 12:02:16;;;;;;;12.88;11.38;;;26.20;97.80;;;;;;5120938;28;20039;-63
2022/04/23 12:04:48;;;;;;;15.82;11.82;;;26.90;96.40;;;;;;5121121;28;20468;-60
2022/04/23 12:07:14;;;;;;;16.55;11.65;;;27.70;94.80;;;;;;5120083;28;20043;-62
2022/04/23 12:09:51;;;;;;;14.50;11.65;;;27.10;95.00;;;;;;5120830;28;20019;-62
2022/04/23 12:12:19;;;;;;;21.60;11.45;;;27.50;94.10;;;;;;5120071;28;20071;-62
2022/04/23 12:15:09;;;;;;;12.65;11.48;;;28.00;92.90;;;;;;5120735;28;20099;-63
2022/04/23 12:17:46;;;;;;;14.60;11.82;;;27.70;92.00;;;;;;5120383;28;20288;-61
2022/04/23 12:20:15;;;;;;;12.80;11.48;;;28.00;91.90;;;;;;5120598;28;20106;-60
2022/04/23 12:22:53;;;;;;;14.95;10.20;;;28.00;91.20;;;;;;5120567;28;20411;-61
2022/04/23 12:25:19;;;;;;;13.07;9.40;;;27.10;91.40;;;;;;5120598;28;20084;-60
2022/04/23 12:42:10;;;;;;;16.33;12.25;;;24.40;93.20;;;;;;5120169;28;20102;-63
2022/04/23 12:44:42;;;;;;;14.32;12.82;;;23.90;94.30;;;;;;5120013;28;20044;-61
2022/04/23 12:47:18;;;;;;;14.10;12.45;;;24.10;93.90;;;;;;5120028;28;20160;-61
2022/04/23 12:49:48;;;;;;;16.23;12.07;;;24.00;93.80;;;;;;5120249;28;20039;-62
2022/04/23 12:52:16;;;;;;;19.13;12.48;;;23.90;94.20;;;;;;5119608;28;20361;-62
2022/04/23 12:55:29;;;;;;;16.00;12.13;;;24.40;94.30;;;;;;5120055;28;20272;-61
2022/04/23 12:58:07;;;;;;;13.27;11.98;;;24.40;93.70;;;;;;5102180;28;20027;-62
2022/04/23 13:00:38;;;;;;;13.27;11.93;;;24.80;93.60;;;;;;5119930;28;20028;-62
2022/04/23 13:03:34;;;;;;;14.65;11.18;;;25.10;93.60;;;;;;5119440;28;20070;-62
2022/04/23 13:06:00;;;;;;;13.20;11.40;;;24.90;92.80;;;;;;5102055;28;20100;-61
2022/04/23 13:11:27;;;;;;;13.40;12.00;;;23.60;94.70;;;;;;5119782;28;20293;-63
2022/04/23 13:13:58;;;;;;;;;;;23.00;94.60;;;;;;5119459;28;20102;-61
2022/04/23 13:16:25;;;;;;;12.35;10.75;;;23.10;94.70;;;;;;5119428;28;19907;-60
2022/04/23 13:18:54;;;;;;;14.18;12.20;;;23.40;94.90;;;;;;5101695;28;20023;-60
2022/04/23 13:21:22;;;;;;;15.95;12.45;;;23.00;94.90;;;;;;5119316;28;20031;-59
2022/04/23 13:23:51;;;;;;;13.75;12.35;;;22.90;95.00;;;;;;5118590;28;20039;-61
2022/04/23 13:26:17;;;;;;;13.07;11.73;;;24.00;94.30;;;;;;5118535;28;20038;-60